sensor_id;sensor_type;location;lat;lon;timestamp;pressure;altitude;pressure_sealevel;temperature;humidity
11099;BME280;12223;42.650;23.364;2023-02-26T00:02:20;93612.59;;;14.39;44.42
11099;BME280;12223;42.650;23.364;2023-02-26T00:04:47;93603.78;;;14.43;44.55
11099;BME280;12223;42.650;23.364;2023-02-26T00:07:14;93602.75;;;14.34;44.20
11099;BME280;12223;42.650;23.364;2023-02-26T00:09:41;93601.47;;;14.22;44.91
11099;BME280;12223;42.650;23.364;2023-02-26T00:12:10;93556.41;;;13.96;44.55
11099;BME280;12223;42.650;23.364;2023-02-26T00:14:37;93586.84;;;14.24;44.53
11099;BME280;12223;42.650;23.364;2023-02-26T00:17:27;93580.41;;;14.35;44.07
11099;BME280;12223;42.650;23.364;2023-02-26T00:19:56;93584.97;;;14.40;44.26
11099;BME280;12223;42.650;23.364;2023-02-26T00:22:24;93578.31;;;14.37;43.67
11099;BME280;12223;42.650;23.364;2023-02-26T00:24:51;93579.63;;;14.30;43.96
11099;BME280;12223;42.650;23.364;2023-02-26T00:27:18;93582.38;;;14.09;44.63
11099;BME280;12223;42.650;23.364;2023-02-26T00:29:45;93580.50;;;14.10;44.58
11099;BME280;12223;42.650;23.364;2023-02-26T00:32:12;93587.38;;;14.21;44.29
11099;BME280;12223;42.650;23.364;2023-02-26T00:34:41;93589.75;;;14.28;44.40
11099;BME280;12223;42.650;23.364;2023-02-26T00:37:14;93571.16;;;14.33;44.26
11099;BME280;12223;42.650;23.364;2023-02-26T00:39:49;93567.50;;;14.08;44.74
11099;BME280;12223;42.650;23.364;2023-02-26T00:42:17;93566.75;;;13.93;45.04
11099;BME280;12223;42.650;23.364;2023-02-26T00:44:45;93560.84;;;14.16;44.19
11099;BME280;12223;42.650;23.364;2023-02-26T00:47:17;93538.34;;;13.93;43.47
11099;BME280;12223;42.650;23.364;2023-02-26T00:53:08;93536.34;;;14.29;43.26
11099;BME280;12223;42.650;23.364;2023-02-26T00:55:37;93538.03;;;14.05;43.56
11099;BME280;12223;42.650;23.364;2023-02-26T00:58:04;93563.72;;;14.25;43.79
11099;BME280;12223;42.650;23.364;2023-02-26T01:00:31;93543.00;;;14.32;43.54
11099;BME280;12223;42.650;23.364;2023-02-26T01:02:58;93550.44;;;14.30;43.27
11099;BME280;12223;42.650;23.364;2023-02-26T01:05:26;93544.41;;;14.14;43.63
11099;BME280;12223;42.650;23.364;2023-02-26T01:08:03;93545.44;;;14.18;43.68
11099;BME280;12223;42.650;23.364;2023-02-26T01:10:35;93539.31;;;14.18;43.62
11099;BME280;12223;42.650;23.364;2023-02-26T01:13:02;93538.03;;;14.15;43.57
11099;BME280;12223;42.650;23.364;2023-02-26T01:15:29;93526.09;;;13.97;43.95
11099;BME280;12223;42.650;23.364;2023-02-26T01:18:02;93545.44;;;14.13;42.85
11099;BME280;12223;42.650;23.364;2023-02-26T01:20:37;93506.16;;;14.15;43.19
11099;BME280;12223;42.650;23.364;2023-02-26T01:23:11;93521.59;;;13.98;42.89
11099;BME280;12223;42.650;23.364;2023-02-26T01:25:43;93505.38;;;14.04;42.99
11099;BME280;12223;42.650;23.364;2023-02-26T01:28:12;93505.38;;;14.09;42.22
11099;BME280;12223;42.650;23.364;2023-02-26T01:30:39;93500.56;;;14.17;42.41
11099;BME280;12223;42.650;23.364;2023-02-26T01:33:10;93487.31;;;14.12;42.39
11099;BME280;12223;42.650;23.364;2023-02-26T01:35:41;93478.03;;;14.04;42.03
11099;BME280;12223;42.650;23.364;2023-02-26T01:38:17;93466.63;;;14.08;41.30
11099;BME280;12223;42.650;23.364;2023-02-26T01:41:06;93463.69;;;14.10;41.73
11099;BME280;12223;42.650;23.364;2023-02-26T01:43:41;93488.38;;;14.16;41.94
11099;BME280;12223;42.650;23.364;2023-02-26T01:46:15;93470.63;;;14.01;41.84
11099;BME280;12223;42.650;23.364;2023-02-26T01:48:48;93470.84;;;14.15;41.74
11099;BME280;12223;42.650;23.364;2023-02-26T01:51:15;93435.47;;;14.24;41.55
11099;BME280;12223;42.650;23.364;2023-02-26T01:53:44;93466.06;;;14.12;41.49
11099;BME280;12223;42.650;23.364;2023-02-26T01:56:13;93472.22;;;14.02;41.98
11099;BME280;12223;42.650;23.364;2023-02-26T01:58:42;93469.56;;;14.02;41.70
11099;BME280;12223;42.650;23.364;2023-02-26T02:01:10;93475.38;;;14.14;41.31
11099;BME280;12223;42.650;23.364;2023-02-26T02:03:38;93459.72;;;14.07;41.07
11099;BME280;12223;42.650;23.364;2023-02-26T02:06:08;93455.47;;;14.06;41.01
11099;BME280;12223;42.650;23.364;2023-02-26T02:08:37;93449.66;;;13.99;40.72
11099;BME280;12223;42.650;23.364;2023-02-26T02:11:07;93431.06;;;14.04;40.84
11099;BME280;12223;42.650;23.364;2023-02-26T02:13:41;93442.97;;;14.12;40.72
11099;BME280;12223;42.650;23.364;2023-02-26T02:16:17;93469.53;;;14.12;40.50
11099;BME280;12223;42.650;23.364;2023-02-26T02:18:51;93464.59;;;13.80;41.18
11099;BME280;12223;42.650;23.364;2023-02-26T02:24:15;93458.47;;;13.85;40.16
11099;BME280;12223;42.650;23.364;2023-02-26T02:26:57;93459.97;;;14.11;39.04
11099;BME280;12223;42.650;23.364;2023-02-26T02:29:52;93450.91;;;14.17;39.20
11099;BME280;12223;42.650;23.364;2023-02-26T02:32:24;93444.81;;;14.17;39.46
11099;BME280;12223;42.650;23.364;2023-02-26T02:34:58;93461.84;;;14.05;39.63
11099;BME280;12223;42.650;23.364;2023-02-26T02:37:32;93457.56;;;14.15;39.38
11099;BME280;12223;42.650;23.364;2023-02-26T02:40:08;93473.53;;;14.09;39.86
11099;BME280;12223;42.650;23.364;2023-02-26T02:42:42;93466.13;;;14.01;39.81
11099;BME280;12223;42.650;23.364;2023-02-26T02:45:14;93469.63;;;13.87;40.38
11099;BME280;12223;42.650;23.364;2023-02-26T02:47:47;93486.91;;;13.74;40.41
11099;BME280;12223;42.650;23.364;2023-02-26T02:50:19;93459.56;;;13.84;39.69
11099;BME280;12223;42.650;23.364;2023-02-26T02:52:50;93470.72;;;13.81;40.61
11099;BME280;12223;42.650;23.364;2023-02-26T02:55:20;93476.56;;;13.73;40.12
11099;BME280;12223;42.650;23.364;2023-02-26T02:57:52;93475.72;;;13.92;39.34
11099;BME280;12223;42.650;23.364;2023-02-26T03:00:23;93478.34;;;13.92;39.07
11099;BME280;12223;42.650;23.364;2023-02-26T03:02:54;93474.31;;;14.10;38.23
11099;BME280;12223;42.650;23.364;2023-02-26T03:05:24;93480.69;;;14.09;37.95
11099;BME280;12223;42.650;23.364;2023-02-26T03:07:54;93483.63;;;14.07;38.62
11099;BME280;12223;42.650;23.364;2023-02-26T03:10:22;93475.19;;;13.95;38.85
11099;BME280;12223;42.650;23.364;2023-02-26T03:12:48;93468.50;;;14.03;38.28
11099;BME280;12223;42.650;23.364;2023-02-26T03:15:20;93457.63;;;13.99;38.09
11099;BME280;12223;42.650;23.364;2023-02-26T03:17:55;93471.19;;;13.93;38.39
11099;BME280;12223;42.650;23.364;2023-02-26T03:20:30;93484.16;;;14.09;38.09
11099;BME280;12223;42.650;23.364;2023-02-26T03:23:04;93482.25;;;14.10;38.38
11099;BME280;12223;42.650;23.364;2023-02-26T03:25:42;93480.13;;;14.12;37.78
11099;BME280;12223;42.650;23.364;2023-02-26T03:28:17;93454.16;;;14.09;37.75
11099;BME280;12223;42.650;23.364;2023-02-26T03:30:50;93441.97;;;13.98;37.66
11099;BME280;12223;42.650;23.364;2023-02-26T03:33:24;93451.31;;;13.90;38.10
11099;BME280;12223;42.650;23.364;2023-02-26T03:35:56;93454.72;;;14.01;37.64
11099;BME280;12223;42.650;23.364;2023-02-26T03:38:29;93460.53;;;14.08;37.83
11099;BME280;12223;42.650;23.364;2023-02-26T03:41:00;93462.84;;;14.20;37.58
11099;BME280;12223;42.650;23.364;2023-02-26T03:43:32;93481.22;;;14.16;37.57
11099;BME280;12223;42.650;23.364;2023-02-26T03:46:06;93459.19;;;14.05;37.34
11099;BME280;12223;42.650;23.364;2023-02-26T03:48:36;93454.38;;;14.13;37.72
11099;BME280;12223;42.650;23.364;2023-02-26T03:51:07;93462.38;;;14.07;37.41
11099;BME280;12223;42.650;23.364;2023-02-26T03:53:38;93449.41;;;14.01;37.51
11099;BME280;12223;42.650;23.364;2023-02-26T03:56:14;93461.84;;;14.05;37.81
11099;BME280;12223;42.650;23.364;2023-02-26T03:58:42;93439.66;;;14.35;36.76
11099;BME280;12223;42.650;23.364;2023-02-26T04:01:13;93419.91;;;14.07;37.07
11099;BME280;12223;42.650;23.364;2023-02-26T04:03:47;93457.91;;;14.03;37.74
11099;BME280;12223;42.650;23.364;2023-02-26T04:06:16;93458.69;;;13.98;37.47
11099;BME280;12223;42.650;23.364;2023-02-26T04:08:45;93447.75;;;14.15;37.02
11099;BME280;12223;42.650;23.364;2023-02-26T04:11:15;93429.91;;;14.26;36.65
11099;BME280;12223;42.650;23.364;2023-02-26T04:13:45;93432.03;;;14.29;36.62
11099;BME280;12223;42.650;23.364;2023-02-26T04:16:13;93450.94;;;14.12;37.36
11099;BME280;12223;42.650;23.364;2023-02-26T04:18:40;93410.78;;;14.29;36.99
11099;BME280;12223;42.650;23.364;2023-02-26T04:21:11;93438.00;;;14.00;37.97
11099;BME280;12223;42.650;23.364;2023-02-26T04:23:38;93410.59;;;13.51;38.17
11099;BME280;12223;42.650;23.364;2023-02-26T04:26:05;93428.69;;;14.03;37.04
11099;BME280;12223;42.650;23.364;2023-02-26T04:28:31;93417.16;;;14.28;36.59
11099;BME280;12223;42.650;23.364;2023-02-26T04:30:59;93417.16;;;14.23;37.09
11099;BME280;12223;42.650;23.364;2023-02-26T04:33:26;93418.81;;;14.14;37.08
11099;BME280;12223;42.650;23.364;2023-02-26T04:35:53;93411.97;;;14.02;37.17
11099;BME280;12223;42.650;23.364;2023-02-26T04:38:21;93422.66;;;13.87;37.08
11099;BME280;12223;42.650;23.364;2023-02-26T04:40:48;93351.91;;;13.67;37.00
11099;BME280;12223;42.650;23.364;2023-02-26T04:43:15;93411.75;;;13.94;37.17
11099;BME280;12223;42.650;23.364;2023-02-26T04:45:44;93374.66;;;14.28;36.78
11099;BME280;12223;42.650;23.364;2023-02-26T04:48:10;93398.13;;;14.10;37.18
11099;BME280;12223;42.650;23.364;2023-02-26T04:50:37;93397.09;;;14.06;37.31
11099;BME280;12223;42.650;23.364;2023-02-26T04:53:04;93391.56;;;13.93;37.43
11099;BME280;12223;42.650;23.364;2023-02-26T04:55:33;93389.81;;;13.78;37.65
11099;BME280;12223;42.650;23.364;2023-02-26T04:57:59;93393.44;;;13.92;37.24
11099;BME280;12223;42.650;23.364;2023-02-26T05:00:26;93411.19;;;14.02;37.50
11099;BME280;12223;42.650;23.364;2023-02-26T05:02:53;93408.81;;;13.95;37.29
11099;BME280;12223;42.650;23.364;2023-02-26T05:05:20;93382.34;;;13.80;37.61
11099;BME280;12223;42.650;23.364;2023-02-26T05:07:47;93401.47;;;13.77;37.64
11099;BME280;12223;42.650;23.364;2023-02-26T05:10:14;93391.75;;;14.12;36.13
11099;BME280;12223;42.650;23.364;2023-02-26T05:12:42;93354.34;;;14.08;36.81
11099;BME280;12223;42.650;23.364;2023-02-26T05:15:10;93376.44;;;13.93;36.71
11099;BME280;12223;42.650;23.364;2023-02-26T05:17:37;93377.78;;;13.96;37.21
11099;BME280;12223;42.650;23.364;2023-02-26T05:20:05;93404.28;;;14.01;37.63
11099;BME280;12223;42.650;23.364;2023-02-26T05:22:34;93406.66;;;13.97;37.40
11099;BME280;12223;42.650;23.364;2023-02-26T05:25:01;93395.50;;;14.05;37.08
11099;BME280;12223;42.650;23.364;2023-02-26T05:27:29;93366.78;;;14.13;37.80
11099;BME280;12223;42.650;23.364;2023-02-26T05:29:57;93421.53;;;14.03;37.36
11099;BME280;12223;42.650;23.364;2023-02-26T05:32:30;93377.41;;;14.13;37.03
11099;BME280;12223;42.650;23.364;2023-02-26T05:34:56;93391.53;;;14.03;37.81
11099;BME280;12223;42.650;23.364;2023-02-26T05:37:23;93395.91;;;14.23;40.86
11099;BME280;12223;42.650;23.364;2023-02-26T05:39:51;93379.56;;;14.05;37.33
11099;BME280;12223;42.650;23.364;2023-02-26T05:42:19;93351.13;;;14.16;36.92
11099;BME280;12223;42.650;23.364;2023-02-26T05:44:54;93399.28;;;14.43;36.95
11099;BME280;12223;42.650;23.364;2023-02-26T05:47:28;93374.78;;;14.85;35.83
11099;BME280;12223;42.650;23.364;2023-02-26T05:49:54;93365.31;;;15.03;35.64
11099;BME280;12223;42.650;23.364;2023-02-26T05:52:24;93378.69;;;14.93;34.65
11099;BME280;12223;42.650;23.364;2023-02-26T05:54:54;93403.88;;;15.01;34.48
11099;BME280;12223;42.650;23.364;2023-02-26T05:57:21;93360.13;;;15.17;33.66
11099;BME280;12223;42.650;23.364;2023-02-26T05:59:48;93386.00;;;15.06;33.86
11099;BME280;12223;42.650;23.364;2023-02-26T06:02:14;93374.63;;;15.01;34.15
11099;BME280;12223;42.650;23.364;2023-02-26T06:04:42;93302.63;;;14.97;33.84
11099;BME280;12223;42.650;23.364;2023-02-26T06:07:09;93345.72;;;14.94;33.90
11099;BME280;12223;42.650;23.364;2023-02-26T06:09:35;93466.94;;;14.95;33.79
11099;BME280;12223;42.650;23.364;2023-02-26T06:12:02;93361.06;;;15.02;33.66
11099;BME280;12223;42.650;23.364;2023-02-26T06:14:28;93409.88;;;14.82;33.90
11099;BME280;12223;42.650;23.364;2023-02-26T06:16:55;93422.63;;;14.85;34.44
11099;BME280;12223;42.650;23.364;2023-02-26T06:19:22;93424.34;;;15.00;33.79
11099;BME280;12223;42.650;23.364;2023-02-26T06:21:50;93420.09;;;14.99;33.85
11099;BME280;12223;42.650;23.364;2023-02-26T06:24:16;93402.16;;;15.15;33.57
11099;BME280;12223;42.650;23.364;2023-02-26T06:26:43;93404.25;;;15.18;33.40
11099;BME280;12223;42.650;23.364;2023-02-26T06:29:09;93359.63;;;15.39;33.04
11099;BME280;12223;42.650;23.364;2023-02-26T06:31:36;93407.84;;;15.61;32.78
11099;BME280;12223;42.650;23.364;2023-02-26T06:34:02;93387.16;;;15.77;32.10
11099;BME280;12223;42.650;23.364;2023-02-26T06:36:29;93412.88;;;15.86;31.94
11099;BME280;12223;42.650;23.364;2023-02-26T06:38:57;93416.88;;;15.84;31.97
11099;BME280;12223;42.650;23.364;2023-02-26T06:41:23;93428.72;;;15.96;32.12
11099;BME280;12223;42.650;23.364;2023-02-26T06:43:50;93399.78;;;16.08;31.92
11099;BME280;12223;42.650;23.364;2023-02-26T06:46:20;93373.97;;;16.09;31.27
11099;BME280;12223;42.650;23.364;2023-02-26T06:48:46;93408.66;;;16.23;31.55
11099;BME280;12223;42.650;23.364;2023-02-26T06:51:13;93403.28;;;16.28;30.81
11099;BME280;12223;42.650;23.364;2023-02-26T06:53:40;93379.88;;;16.25;30.58
11099;BME280;12223;42.650;23.364;2023-02-26T06:56:08;93371.03;;;16.29;30.55
11099;BME280;12223;42.650;23.364;2023-02-26T06:58:35;93390.59;;;16.38;30.57
11099;BME280;12223;42.650;23.364;2023-02-26T07:01:02;93389.75;;;16.43;30.41
11099;BME280;12223;42.650;23.364;2023-02-26T07:03:28;93386.78;;;16.63;30.41
11099;BME280;12223;42.650;23.364;2023-02-26T07:05:55;93336.47;;;16.94;29.79
11099;BME280;12223;42.650;23.364;2023-02-26T07:08:22;93365.66;;;17.32;29.50
11099;BME280;12223;42.650;23.364;2023-02-26T07:10:49;93360.41;;;17.54;29.46
11099;BME280;12223;42.650;23.364;2023-02-26T07:13:17;93314.78;;;17.69;29.07
11099;BME280;12223;42.650;23.364;2023-02-26T07:15:43;93328.19;;;17.78;28.98
11099;BME280;12223;42.650;23.364;2023-02-26T07:18:10;93331.91;;;18.04;28.43
11099;BME280;12223;42.650;23.364;2023-02-26T07:20:36;93332.50;;;18.15;28.28
11099;BME280;12223;42.650;23.364;2023-02-26T07:23:03;93319.41;;;18.27;28.13
11099;BME280;12223;42.650;23.364;2023-02-26T07:25:29;93351.84;;;18.34;28.13
11099;BME280;12223;42.650;23.364;2023-02-26T07:27:56;93334.47;;;18.09;28.38
11099;BME280;12223;42.650;23.364;2023-02-26T07:30:25;93340.13;;;18.57;27.86
11099;BME280;12223;42.650;23.364;2023-02-26T07:32:51;93339.50;;;18.82;27.70
11099;BME280;12223;42.650;23.364;2023-02-26T07:35:18;93340.13;;;18.57;27.36
11099;BME280;12223;42.650;23.364;2023-02-26T07:37:44;93353.31;;;18.76;27.40
11099;BME280;12223;42.650;23.364;2023-02-26T07:40:11;93338.72;;;18.82;29.19
11099;BME280;12223;42.650;23.364;2023-02-26T07:42:38;93352.88;;;18.82;26.98
11099;BME280;12223;42.650;23.364;2023-02-26T07:45:05;93365.28;;;19.01;26.73
11099;BME280;12223;42.650;23.364;2023-02-26T07:47:34;93353.16;;;19.03;26.59
11099;BME280;12223;42.650;23.364;2023-02-26T07:50:03;93323.53;;;19.22;26.59
11099;BME280;12223;42.650;23.364;2023-02-26T07:52:30;93332.09;;;19.02;26.48
11099;BME280;12223;42.650;23.364;2023-02-26T07:54:56;93349.53;;;18.99;26.62
11099;BME280;12223;42.650;23.364;2023-02-26T07:57:23;93308.94;;;18.75;26.43
11099;BME280;12223;42.650;23.364;2023-02-26T07:59:49;93364.13;;;18.71;26.96
11099;BME280;12223;42.650;23.364;2023-02-26T08:02:16;93366.81;;;18.71;26.33
11099;BME280;12223;42.650;23.364;2023-02-26T08:04:44;93352.69;;;18.79;26.31
11099;BME280;12223;42.650;23.364;2023-02-26T08:07:11;93324.72;;;18.85;27.38
11099;BME280;12223;42.650;23.364;2023-02-26T08:09:37;93357.47;;;18.91;26.09
11099;BME280;12223;42.650;23.364;2023-02-26T08:12:03;93344.44;;;18.89;26.46
11099;BME280;12223;42.650;23.364;2023-02-26T08:14:30;93352.75;;;18.65;26.49
11099;BME280;12223;42.650;23.364;2023-02-26T08:16:56;93368.88;;;18.38;26.75
11099;BME280;12223;42.650;23.364;2023-02-26T08:19:23;93340.28;;;18.25;26.93
11099;BME280;12223;42.650;23.364;2023-02-26T08:21:51;93351.69;;;18.17;27.02
11099;BME280;12223;42.650;23.364;2023-02-26T08:24:19;93374.00;;;18.34;27.07
11099;BME280;12223;42.650;23.364;2023-02-26T08:26:46;93365.72;;;18.22;27.29
11099;BME280;12223;42.650;23.364;2023-02-26T08:29:12;93391.84;;;18.25;27.46
11099;BME280;12223;42.650;23.364;2023-02-26T08:31:39;93388.41;;;18.25;26.90
11099;BME280;12223;42.650;23.364;2023-02-26T08:34:05;93390.84;;;18.35;26.91
11099;BME280;12223;42.650;23.364;2023-02-26T08:36:33;93409.22;;;18.50;26.92
11099;BME280;12223;42.650;23.364;2023-02-26T08:39:01;93412.91;;;18.40;26.81
11099;BME280;12223;42.650;23.364;2023-02-26T08:41:27;93417.19;;;18.28;26.67
11099;BME280;12223;42.650;23.364;2023-02-26T08:43:56;93414.06;;;17.98;26.96
11099;BME280;12223;42.650;23.364;2023-02-26T08:46:22;93406.91;;;18.21;27.05
11099;BME280;12223;42.650;23.364;2023-02-26T08:48:49;93413.72;;;18.27;26.96
11099;BME280;12223;42.650;23.364;2023-02-26T08:51:16;93447.75;;;18.35;27.43
11099;BME280;12223;42.650;23.364;2023-02-26T08:53:43;93397.28;;;19.67;26.14
11099;BME280;12223;42.650;23.364;2023-02-26T08:56:13;93402.31;;;19.07;25.52
11099;BME280;12223;42.650;23.364;2023-02-26T08:58:39;93425.09;;;18.82;25.92
11099;BME280;12223;42.650;23.364;2023-02-26T09:01:06;93413.41;;;18.78;25.94
11099;BME280;12223;42.650;23.364;2023-02-26T09:03:33;93408.75;;;18.84;25.61
11099;BME280;12223;42.650;23.364;2023-02-26T09:06:01;93417.38;;;18.59;26.15
11099;BME280;12223;42.650;23.364;2023-02-26T09:08:29;93386.25;;;18.49;25.95
11099;BME280;12223;42.650;23.364;2023-02-26T09:10:58;93398.16;;;18.43;25.95
11099;BME280;12223;42.650;23.364;2023-02-26T09:13:27;93405.09;;;18.58;25.52
11099;BME280;12223;42.650;23.364;2023-02-26T09:15:54;93392.75;;;18.93;25.45
11099;BME280;12223;42.650;23.364;2023-02-26T09:18:21;93413.94;;;19.03;25.36
11099;BME280;12223;42.650;23.364;2023-02-26T09:20:48;93400.28;;;19.13;24.66
11099;BME280;12223;42.650;23.364;2023-02-26T09:23:15;93412.88;;;19.35;24.97
11099;BME280;12223;42.650;23.364;2023-02-26T09:25:41;93393.47;;;19.51;24.83
11099;BME280;12223;42.650;23.364;2023-02-26T09:28:08;93405.06;;;19.78;24.28
11099;BME280;12223;42.650;23.364;2023-02-26T09:30:36;93400.53;;;19.87;23.81
11099;BME280;12223;42.650;23.364;2023-02-26T09:33:04;93421.72;;;19.66;23.71
11099;BME280;12223;42.650;23.364;2023-02-26T09:35:30;93400.78;;;19.68;23.84
11099;BME280;12223;42.650;23.364;2023-02-26T09:37:57;93396.94;;;19.60;23.54
11099;BME280;12223;42.650;23.364;2023-02-26T09:40:31;93388.25;;;19.46;23.81
11099;BME280;12223;42.650;23.364;2023-02-26T09:43:12;93406.09;;;19.59;23.87
11099;BME280;12223;42.650;23.364;2023-02-26T09:45:46;93408.94;;;19.63;23.97
11099;BME280;12223;42.650;23.364;2023-02-26T09:48:17;93380.41;;;19.58;23.70
11099;BME280;12223;42.650;23.364;2023-02-26T09:50:47;93391.50;;;19.74;23.97
11099;BME280;12223;42.650;23.364;2023-02-26T09:53:18;93386.38;;;19.95;23.84
11099;BME280;12223;42.650;23.364;2023-02-26T09:55:49;93390.50;;;20.01;23.55
11099;BME280;12223;42.650;23.364;2023-02-26T09:58:20;93390.91;;;19.86;23.52
11099;BME280;12223;42.650;23.364;2023-02-26T10:00:59;93386.22;;;20.00;23.69
11099;BME280;12223;42.650;23.364;2023-02-26T10:03:30;93402.97;;;20.14;23.68
11099;BME280;12223;42.650;23.364;2023-02-26T10:06:15;93391.81;;;20.21;23.59
11099;BME280;12223;42.650;23.364;2023-02-26T10:08:55;93396.59;;;20.50;23.55
11099;BME280;12223;42.650;23.364;2023-02-26T10:11:29;93394.72;;;20.59;23.76
11099;BME280;12223;42.650;23.364;2023-02-26T10:14:01;93395.19;;;20.43;23.38
11099;BME280;12223;42.650;23.364;2023-02-26T10:16:34;93367.19;;;20.19;23.89
11099;BME280;12223;42.650;23.364;2023-02-26T10:19:05;93394.31;;;20.08;24.18
11099;BME280;12223;42.650;23.364;2023-02-26T10:21:37;93383.13;;;20.24;24.16
11099;BME280;12223;42.650;23.364;2023-02-26T10:24:08;93370.19;;;20.08;24.41
11099;BME280;12223;42.650;23.364;2023-02-26T10:26:40;93378.88;;;20.14;23.96
11099;BME280;12223;42.650;23.364;2023-02-26T10:29:16;93335.00;;;20.01;23.81
11099;BME280;12223;42.650;23.364;2023-02-26T10:31:56;93327.44;;;20.12;23.99
11099;BME280;12223;42.650;23.364;2023-02-26T10:34:30;93354.06;;;20.00;23.53
11099;BME280;12223;42.650;23.364;2023-02-26T10:37:03;93345.75;;;20.19;23.97
11099;BME280;12223;42.650;23.364;2023-02-26T10:39:39;93341.88;;;20.33;23.62
11099;BME280;12223;42.650;23.364;2023-02-26T10:42:12;93352.38;;;20.21;23.45
11099;BME280;12223;42.650;23.364;2023-02-26T10:44:44;93347.13;;;19.99;23.70
11099;BME280;12223;42.650;23.364;2023-02-26T10:47:21;93315.13;;;19.94;23.20
11099;BME280;12223;42.650;23.364;2023-02-26T10:49:58;93348.78;;;19.69;23.80
11099;BME280;12223;42.650;23.364;2023-02-26T10:52:29;93341.69;;;19.64;24.00
11099;BME280;12223;42.650;23.364;2023-02-26T10:55:12;93348.16;;;19.41;24.29
11099;BME280;12223;42.650;23.364;2023-02-26T10:57:48;93329.53;;;19.27;24.70
11099;BME280;12223;42.650;23.364;2023-02-26T11:00:19;93337.72;;;19.31;25.28
11099;BME280;12223;42.650;23.364;2023-02-26T11:02:49;93346.94;;;19.16;25.27
11099;BME280;12223;42.650;23.364;2023-02-26T11:05:20;93341.91;;;19.15;25.79
11099;BME280;12223;42.650;23.364;2023-02-26T11:07:50;93334.13;;;19.05;25.28
11099;BME280;12223;42.650;23.364;2023-02-26T11:10:20;93349.34;;;18.96;25.86
11099;BME280;12223;42.650;23.364;2023-02-26T11:12:48;93318.28;;;18.86;26.06
11099;BME280;12223;42.650;23.364;2023-02-26T11:15:17;93290.66;;;18.68;25.70
11099;BME280;12223;42.650;23.364;2023-02-26T11:17:48;93311.06;;;18.64;25.73
11099;BME280;12223;42.650;23.364;2023-02-26T11:20:27;93276.47;;;18.45;25.73
11099;BME280;12223;42.650;23.364;2023-02-26T11:22:56;93315.22;;;18.34;26.36
11099;BME280;12223;42.650;23.364;2023-02-26T11:25:28;93322.94;;;18.36;26.39
11099;BME280;12223;42.650;23.364;2023-02-26T11:28:01;93326.69;;;18.35;26.16
11099;BME280;12223;42.650;23.364;2023-02-26T11:30:30;93345.53;;;18.30;26.30
11099;BME280;12223;42.650;23.364;2023-02-26T11:33:10;93334.88;;;18.16;26.29
11099;BME280;12223;42.650;23.364;2023-02-26T11:35:39;93341.00;;;18.17;26.84
11099;BME280;12223;42.650;23.364;2023-02-26T11:38:13;93313.63;;;17.97;26.26
11099;BME280;12223;42.650;23.364;2023-02-26T11:40:41;93330.69;;;18.24;26.28
11099;BME280;12223;42.650;23.364;2023-02-26T11:43:12;93348.44;;;18.20;26.59
11099;BME280;12223;42.650;23.364;2023-02-26T11:45:43;93355.16;;;18.17;26.44
11099;BME280;12223;42.650;23.364;2023-02-26T11:48:14;93344.28;;;18.14;26.02
11099;BME280;12223;42.650;23.364;2023-02-26T11:50:46;93377.63;;;18.02;26.67
11099;BME280;12223;42.650;23.364;2023-02-26T11:53:19;93389.03;;;18.08;26.65
11099;BME280;12223;42.650;23.364;2023-02-26T11:55:51;93382.22;;;18.02;26.96
11099;BME280;12223;42.650;23.364;2023-02-26T11:58:19;93421.38;;;18.06;27.57
11099;BME280;12223;42.650;23.364;2023-02-26T12:00:48;93385.56;;;18.07;28.03
11099;BME280;12223;42.650;23.364;2023-02-26T12:03:20;93403.53;;;18.16;28.88
11099;BME280;12223;42.650;23.364;2023-02-26T12:05:47;93411.56;;;18.16;28.38
11099;BME280;12223;42.650;23.364;2023-02-26T12:08:22;93386.41;;;18.17;28.91
11099;BME280;12223;42.650;23.364;2023-02-26T12:11:00;93404.44;;;18.25;29.36
11099;BME280;12223;42.650;23.364;2023-02-26T12:13:35;93402.56;;;18.25;29.14
11099;BME280;12223;42.650;23.364;2023-02-26T12:16:13;93398.03;;;17.98;29.70
11099;BME280;12223;42.650;23.364;2023-02-26T12:18:54;93397.63;;;18.05;29.45
11099;BME280;12223;42.650;23.364;2023-02-26T12:21:58;93395.53;;;18.16;29.15
11099;BME280;12223;42.650;23.364;2023-02-26T12:24:48;93402.69;;;17.93;29.15
11099;BME280;12223;42.650;23.364;2023-02-26T12:27:27;93415.25;;;17.79;30.01
11099;BME280;12223;42.650;23.364;2023-02-26T12:30:08;93426.81;;;17.74;30.70
11099;BME280;12223;42.650;23.364;2023-02-26T12:32:52;93398.81;;;17.85;30.97
11099;BME280;12223;42.650;23.364;2023-02-26T12:35:41;93417.50;;;17.85;30.01
11099;BME280;12223;42.650;23.364;2023-02-26T12:38:24;93403.97;;;17.82;30.11
11099;BME280;12223;42.650;23.364;2023-02-26T12:41:17;93438.78;;;18.04;29.70
11099;BME280;12223;42.650;23.364;2023-02-26T12:43:49;93417.69;;;18.30;28.33
11099;BME280;12223;42.650;23.364;2023-02-26T12:46:53;93448.66;;;18.58;29.75
11099;BME280;12223;42.650;23.364;2023-02-26T12:49:49;93454.78;;;18.59;30.16
11099;BME280;12223;42.650;23.364;2023-02-26T12:52:37;93430.81;;;18.40;30.09
11099;BME280;12223;42.650;23.364;2023-02-26T12:55:19;93444.00;;;18.36;30.04
11099;BME280;12223;42.650;23.364;2023-02-26T12:58:12;93445.06;;;18.49;29.04
11099;BME280;12223;42.650;23.364;2023-02-26T13:00:53;93447.13;;;18.66;28.54
11099;BME280;12223;42.650;23.364;2023-02-26T13:03:39;93439.19;;;18.74;28.36
11099;BME280;12223;42.650;23.364;2023-02-26T13:06:39;93439.31;;;18.69;28.89
11099;BME280;12223;42.650;23.364;2023-02-26T13:09:15;93441.97;;;18.69;30.01
11099;BME280;12223;42.650;23.364;2023-02-26T13:11:57;93413.66;;;18.55;29.52
11099;BME280;12223;42.650;23.364;2023-02-26T13:14:34;93408.34;;;18.41;29.73
11099;BME280;12223;42.650;23.364;2023-02-26T13:17:10;93436.88;;;18.32;29.82